Atlantic Beach, North Carolina
Current Conditions -  °F | °C
As of 6:58 PM on Monday 24 Nov 2014 (Local Time) from KMRH Reporting Station
Haze Haze  
Wind Chill: 67°   Ceiling: 2000
Heat Index: 67°   Visibility: 5mi
Dew Point: 67°   Wind: 12mph
Humidity: 100%   Direction: 220°SW
Pressure: 29.92"   Gusts: NA
Location:  34.7°N, 76.74°W
Report Text: KMRH 242358Z AUTO 22010KT 5SM BR OVC020 19/19 A2992 RMK AO2 SLP131 T01940194 10211 20194 51015 TSNO
Loading
Personal Weather Stations






























Interactive Weather Map New forecast layout! Learn more

10-Day Weather Forecast

Advertisements
Track Severe Weather on mobile